Bishop, Texas
Current Conditions -  °F | °C
As of 8:56 AM on Sunday 21 Dec 2014 (Local Time) from KNQI Reporting Station
Overcast Overcast  
Wind Chill: 55°   Ceiling: 500
Heat Index: 55°   Visibility: 9mi
Dew Point: 54°   Wind: 10mph
Humidity: 96%   Direction: 360°N
Pressure: 30.11"   Gusts: NA
Location:  27.59°N, 97.8°W
Report Text: KNQI 211456Z AUTO 36009KT 9SM OVC005 13/12 A3011 RMK AO2 SLP193 T01280122 53006
Loading
Personal Weather Stations






























Interactive Weather Map New forecast layout! Learn more

10-Day Weather Forecast

Advertisements
Track Severe Weather on mobile